sensor_id;sensor_type;location;lat;lon;timestamp;P1;durP1;ratioP1;P2;durP2;ratioP2
37955;SDS011;23776;51.592;7.180;2023-02-11T00:00:13;82.07;;;31.23;;
37955;SDS011;23776;51.592;7.180;2023-02-11T00:02:39;87.72;;;30.08;;
37955;SDS011;23776;51.592;7.180;2023-02-11T00:05:05;79.95;;;30.15;;
37955;SDS011;23776;51.592;7.180;2023-02-11T00:07:31;83.05;;;33.50;;
37955;SDS011;23776;51.592;7.180;2023-02-11T00:09:57;76.47;;;29.85;;
37955;SDS011;23776;51.592;7.180;2023-02-11T00:12:23;74.25;;;30.42;;
37955;SDS011;23776;51.592;7.180;2023-02-11T00:14:50;81.07;;;30.45;;
37955;SDS011;23776;51.592;7.180;2023-02-11T00:17:16;77.32;;;29.95;;
37955;SDS011;23776;51.592;7.180;2023-02-11T00:19:41;80.32;;;29.00;;
37955;SDS011;23776;51.592;7.180;2023-02-11T00:22:07;77.95;;;28.80;;
37955;SDS011;23776;51.592;7.180;2023-02-11T00:24:33;82.07;;;31.02;;
37955;SDS011;23776;51.592;7.180;2023-02-11T00:27:00;73.75;;;29.52;;
37955;SDS011;23776;51.592;7.180;2023-02-11T00:29:25;70.88;;;29.02;;
37955;SDS011;23776;51.592;7.180;2023-02-11T00:31:51;78.05;;;30.35;;
37955;SDS011;23776;51.592;7.180;2023-02-11T00:34:17;74.18;;;29.77;;
37955;SDS011;23776;51.592;7.180;2023-02-11T00:36:42;69.57;;;28.85;;
37955;SDS011;23776;51.592;7.180;2023-02-11T00:39:08;70.80;;;30.13;;
37955;SDS011;23776;51.592;7.180;2023-02-11T00:41:33;71.70;;;28.63;;
37955;SDS011;23776;51.592;7.180;2023-02-11T00:43:59;74.22;;;28.75;;
37955;SDS011;23776;51.592;7.180;2023-02-11T00:46:26;73.57;;;29.33;;
37955;SDS011;23776;51.592;7.180;2023-02-11T00:48:51;67.28;;;26.65;;
37955;SDS011;23776;51.592;7.180;2023-02-11T00:51:21;71.57;;;27.52;;
37955;SDS011;23776;51.592;7.180;2023-02-11T00:53:48;77.32;;;28.80;;
37955;SDS011;23776;51.592;7.180;2023-02-11T00:56:14;64.78;;;27.92;;
37955;SDS011;23776;51.592;7.180;2023-02-11T00:58:39;68.10;;;28.38;;
37955;SDS011;23776;51.592;7.180;2023-02-11T01:01:05;71.93;;;27.83;;
37955;SDS011;23776;51.592;7.180;2023-02-11T01:03:31;73.95;;;26.92;;
37955;SDS011;23776;51.592;7.180;2023-02-11T01:05:57;61.78;;;26.02;;
37955;SDS011;23776;51.592;7.180;2023-02-11T01:08:23;72.60;;;27.38;;
37955;SDS011;23776;51.592;7.180;2023-02-11T01:11:02;65.25;;;27.90;;
37955;SDS011;23776;51.592;7.180;2023-02-11T01:13:31;76.68;;;27.42;;
37955;SDS011;23776;51.592;7.180;2023-02-11T01:15:58;64.55;;;25.55;;
37955;SDS011;23776;51.592;7.180;2023-02-11T01:18:24;64.00;;;25.17;;
37955;SDS011;23776;51.592;7.180;2023-02-11T01:20:51;70.53;;;28.02;;
37955;SDS011;23776;51.592;7.180;2023-02-11T01:23:17;61.70;;;24.05;;
37955;SDS011;23776;51.592;7.180;2023-02-11T01:25:43;60.88;;;24.65;;
37955;SDS011;23776;51.592;7.180;2023-02-11T01:28:16;64.82;;;26.27;;
37955;SDS011;23776;51.592;7.180;2023-02-11T01:30:45;66.65;;;24.73;;
37955;SDS011;23776;51.592;7.180;2023-02-11T01:33:12;58.45;;;25.48;;
37955;SDS011;23776;51.592;7.180;2023-02-11T01:35:38;59.30;;;24.60;;
37955;SDS011;23776;51.592;7.180;2023-02-11T01:38:05;66.05;;;25.25;;
37955;SDS011;23776;51.592;7.180;2023-02-11T01:40:31;58.67;;;24.85;;
37955;SDS011;23776;51.592;7.180;2023-02-11T01:42:57;57.55;;;23.42;;
37955;SDS011;23776;51.592;7.180;2023-02-11T01:48:06;51.10;;;23.15;;
37955;SDS011;23776;51.592;7.180;2023-02-11T01:50:36;55.85;;;23.35;;
37955;SDS011;23776;51.592;7.180;2023-02-11T01:53:03;56.95;;;22.50;;
37955;SDS011;23776;51.592;7.180;2023-02-11T01:55:48;53.08;;;22.90;;
37955;SDS011;23776;51.592;7.180;2023-02-11T01:58:35;54.85;;;21.48;;
37955;SDS011;23776;51.592;7.180;2023-02-11T02:01:04;63.80;;;21.55;;
37955;SDS011;23776;51.592;7.180;2023-02-11T02:03:32;54.53;;;21.80;;
37955;SDS011;23776;51.592;7.180;2023-02-11T02:06:08;47.83;;;20.85;;
37955;SDS011;23776;51.592;7.180;2023-02-11T02:11:24;52.83;;;21.10;;
37955;SDS011;23776;51.592;7.180;2023-02-11T02:13:50;53.53;;;21.42;;
37955;SDS011;23776;51.592;7.180;2023-02-11T02:16:17;50.70;;;21.38;;
37955;SDS011;23776;51.592;7.180;2023-02-11T02:27:01;57.58;;;22.35;;
37955;SDS011;23776;51.592;7.180;2023-02-11T02:43:21;55.77;;;22.20;;
37955;SDS011;23776;51.592;7.180;2023-02-11T02:45:49;53.63;;;22.23;;
37955;SDS011;23776;51.592;7.180;2023-02-11T02:48:25;56.97;;;22.13;;
37955;SDS011;23776;51.592;7.180;2023-02-11T02:56:50;59.08;;;21.98;;
37955;SDS011;23776;51.592;7.180;2023-02-11T02:59:40;55.75;;;21.80;;
37955;SDS011;23776;51.592;7.180;2023-02-11T03:02:19;55.33;;;22.02;;
37955;SDS011;23776;51.592;7.180;2023-02-11T03:12:32;55.60;;;23.25;;
37955;SDS011;23776;51.592;7.180;2023-02-11T03:14:58;50.25;;;19.75;;
37955;SDS011;23776;51.592;7.180;2023-02-11T03:17:27;52.95;;;23.15;;
37955;SDS011;23776;51.592;7.180;2023-02-11T03:19:57;52.28;;;22.83;;
37955;SDS011;23776;51.592;7.180;2023-02-11T03:22:34;62.72;;;24.17;;
37955;SDS011;23776;51.592;7.180;2023-02-11T03:25:10;63.63;;;24.05;;
37955;SDS011;23776;51.592;7.180;2023-02-11T03:30:26;67.85;;;23.52;;
37955;SDS011;23776;51.592;7.180;2023-02-11T03:32:57;59.80;;;23.33;;
37955;SDS011;23776;51.592;7.180;2023-02-11T03:35:35;62.25;;;24.10;;
37955;SDS011;23776;51.592;7.180;2023-02-11T03:38:12;57.42;;;23.58;;
37955;SDS011;23776;51.592;7.180;2023-02-11T03:40:42;54.53;;;23.42;;
37955;SDS011;23776;51.592;7.180;2023-02-11T03:43:25;56.10;;;22.23;;
37955;SDS011;23776;51.592;7.180;2023-02-11T03:45:56;42.47;;;22.02;;
37955;SDS011;23776;51.592;7.180;2023-02-11T03:48:24;72.90;;;24.52;;
37955;SDS011;23776;51.592;7.180;2023-02-11T03:50:54;62.83;;;23.65;;
37955;SDS011;23776;51.592;7.180;2023-02-11T03:53:22;62.90;;;25.02;;
37955;SDS011;23776;51.592;7.180;2023-02-11T03:55:48;51.55;;;23.25;;
37955;SDS011;23776;51.592;7.180;2023-02-11T03:58:15;66.35;;;23.40;;
37955;SDS011;23776;51.592;7.180;2023-02-11T04:00:42;53.63;;;23.08;;
37955;SDS011;23776;51.592;7.180;2023-02-11T04:03:09;62.20;;;24.67;;
37955;SDS011;23776;51.592;7.180;2023-02-11T04:05:35;60.13;;;24.80;;
37955;SDS011;23776;51.592;7.180;2023-02-11T04:08:02;58.30;;;25.83;;
37955;SDS011;23776;51.592;7.180;2023-02-11T04:10:28;72.68;;;28.35;;
37955;SDS011;23776;51.592;7.180;2023-02-11T04:12:53;53.10;;;24.58;;
37955;SDS011;23776;51.592;7.180;2023-02-11T04:15:19;55.22;;;25.30;;
37955;SDS011;23776;51.592;7.180;2023-02-11T04:17:45;56.33;;;23.83;;
37955;SDS011;23776;51.592;7.180;2023-02-11T04:20:11;55.03;;;24.95;;
37955;SDS011;23776;51.592;7.180;2023-02-11T04:22:37;51.42;;;24.50;;
37955;SDS011;23776;51.592;7.180;2023-02-11T04:25:03;67.80;;;26.73;;
37955;SDS011;23776;51.592;7.180;2023-02-11T04:27:29;66.75;;;26.70;;
37955;SDS011;23776;51.592;7.180;2023-02-11T04:29:55;66.85;;;26.92;;
37955;SDS011;23776;51.592;7.180;2023-02-11T04:32:21;59.22;;;26.52;;
37955;SDS011;23776;51.592;7.180;2023-02-11T04:34:46;61.03;;;26.02;;
37955;SDS011;23776;51.592;7.180;2023-02-11T04:37:12;63.53;;;26.55;;
37955;SDS011;23776;51.592;7.180;2023-02-11T04:39:38;69.75;;;26.40;;
37955;SDS011;23776;51.592;7.180;2023-02-11T04:42:03;65.00;;;26.00;;
37955;SDS011;23776;51.592;7.180;2023-02-11T04:44:29;60.90;;;25.40;;
37955;SDS011;23776;51.592;7.180;2023-02-11T04:46:55;64.47;;;24.17;;
37955;SDS011;23776;51.592;7.180;2023-02-11T04:49:21;63.05;;;24.98;;
37955;SDS011;23776;51.592;7.180;2023-02-11T04:51:46;72.65;;;27.50;;
37955;SDS011;23776;51.592;7.180;2023-02-11T04:54:12;63.72;;;26.85;;
37955;SDS011;23776;51.592;7.180;2023-02-11T04:56:37;64.45;;;26.00;;
37955;SDS011;23776;51.592;7.180;2023-02-11T04:59:03;59.53;;;25.65;;
37955;SDS011;23776;51.592;7.180;2023-02-11T05:01:30;63.75;;;26.58;;
37955;SDS011;23776;51.592;7.180;2023-02-11T05:03:56;61.30;;;26.75;;
37955;SDS011;23776;51.592;7.180;2023-02-11T05:06:21;62.65;;;26.90;;
37955;SDS011;23776;51.592;7.180;2023-02-11T05:08:47;85.68;;;32.08;;
37955;SDS011;23776;51.592;7.180;2023-02-11T05:11:20;73.72;;;30.30;;
37955;SDS011;23776;51.592;7.180;2023-02-11T05:13:47;67.78;;;30.67;;
37955;SDS011;23776;51.592;7.180;2023-02-11T05:16:13;61.13;;;28.20;;
37955;SDS011;23776;51.592;7.180;2023-02-11T05:18:40;78.53;;;30.92;;
37955;SDS011;23776;51.592;7.180;2023-02-11T05:21:07;70.38;;;30.38;;
37955;SDS011;23776;51.592;7.180;2023-02-11T05:23:34;59.80;;;28.35;;
37955;SDS011;23776;51.592;7.180;2023-02-11T05:26:00;63.35;;;28.73;;
37955;SDS011;23776;51.592;7.180;2023-02-11T05:28:27;69.88;;;28.25;;
37955;SDS011;23776;51.592;7.180;2023-02-11T05:30:53;66.75;;;28.90;;
37955;SDS011;23776;51.592;7.180;2023-02-11T05:33:19;80.90;;;30.73;;
37955;SDS011;23776;51.592;7.180;2023-02-11T05:35:45;73.22;;;32.50;;
37955;SDS011;23776;51.592;7.180;2023-02-11T05:38:10;73.47;;;32.75;;
37955;SDS011;23776;51.592;7.180;2023-02-11T05:40:36;72.30;;;31.10;;
37955;SDS011;23776;51.592;7.180;2023-02-11T05:43:02;74.97;;;31.45;;
37955;SDS011;23776;51.592;7.180;2023-02-11T05:45:28;79.13;;;32.45;;
37955;SDS011;23776;51.592;7.180;2023-02-11T05:47:53;82.57;;;31.98;;
37955;SDS011;23776;51.592;7.180;2023-02-11T05:50:19;78.18;;;30.27;;
37955;SDS011;23776;51.592;7.180;2023-02-11T05:52:45;81.53;;;33.13;;
37955;SDS011;23776;51.592;7.180;2023-02-11T05:55:10;76.32;;;30.77;;
37955;SDS011;23776;51.592;7.180;2023-02-11T05:57:36;79.55;;;30.88;;
37955;SDS011;23776;51.592;7.180;2023-02-11T06:00:02;72.05;;;33.53;;
37955;SDS011;23776;51.592;7.180;2023-02-11T06:02:28;78.82;;;32.70;;
37955;SDS011;23776;51.592;7.180;2023-02-11T06:04:54;83.53;;;34.58;;
37955;SDS011;23776;51.592;7.180;2023-02-11T06:07:19;81.60;;;32.15;;
37955;SDS011;23776;51.592;7.180;2023-02-11T06:09:45;85.75;;;33.58;;
37955;SDS011;23776;51.592;7.180;2023-02-11T06:12:11;77.38;;;31.70;;
37955;SDS011;23776;51.592;7.180;2023-02-11T06:14:36;81.07;;;34.40;;
37955;SDS011;23776;51.592;7.180;2023-02-11T06:17:02;78.78;;;33.15;;
37955;SDS011;23776;51.592;7.180;2023-02-11T06:19:28;78.28;;;31.83;;
37955;SDS011;23776;51.592;7.180;2023-02-11T06:21:55;93.40;;;36.72;;
37955;SDS011;23776;51.592;7.180;2023-02-11T06:24:21;92.65;;;37.08;;
37955;SDS011;23776;51.592;7.180;2023-02-11T06:26:47;96.28;;;37.10;;
37955;SDS011;23776;51.592;7.180;2023-02-11T06:29:13;94.45;;;37.80;;
37955;SDS011;23776;51.592;7.180;2023-02-11T06:31:39;87.38;;;36.60;;
37955;SDS011;23776;51.592;7.180;2023-02-11T06:34:05;101.00;;;40.25;;
37955;SDS011;23776;51.592;7.180;2023-02-11T06:36:32;100.20;;;40.35;;
37955;SDS011;23776;51.592;7.180;2023-02-11T06:38:58;97.10;;;38.70;;
37955;SDS011;23776;51.592;7.180;2023-02-11T06:41:24;98.10;;;39.45;;
37955;SDS011;23776;51.592;7.180;2023-02-11T06:43:51;102.55;;;38.95;;
37955;SDS011;23776;51.592;7.180;2023-02-11T06:46:17;113.30;;;41.67;;
37955;SDS011;23776;51.592;7.180;2023-02-11T06:48:43;104.78;;;43.72;;
37955;SDS011;23776;51.592;7.180;2023-02-11T06:51:09;112.10;;;40.55;;
37955;SDS011;23776;51.592;7.180;2023-02-11T06:53:38;114.63;;;42.30;;
37955;SDS011;23776;51.592;7.180;2023-02-11T06:56:11;104.50;;;40.88;;
37955;SDS011;23776;51.592;7.180;2023-02-11T06:58:38;115.72;;;46.25;;
37955;SDS011;23776;51.592;7.180;2023-02-11T07:01:08;115.70;;;43.88;;
37955;SDS011;23776;51.592;7.180;2023-02-11T07:03:36;119.38;;;43.95;;
37955;SDS011;23776;51.592;7.180;2023-02-11T07:06:04;120.07;;;43.20;;
37955;SDS011;23776;51.592;7.180;2023-02-11T07:08:34;125.35;;;44.58;;
37955;SDS011;23776;51.592;7.180;2023-02-11T07:11:00;123.65;;;44.20;;
37955;SDS011;23776;51.592;7.180;2023-02-11T07:13:26;111.50;;;41.95;;
37955;SDS011;23776;51.592;7.180;2023-02-11T07:15:52;122.28;;;46.60;;
37955;SDS011;23776;51.592;7.180;2023-02-11T07:18:17;122.38;;;43.75;;
37955;SDS011;23776;51.592;7.180;2023-02-11T07:20:43;126.47;;;44.60;;
37955;SDS011;23776;51.592;7.180;2023-02-11T07:23:09;126.93;;;45.33;;
37955;SDS011;23776;51.592;7.180;2023-02-11T07:25:35;123.35;;;44.25;;
37955;SDS011;23776;51.592;7.180;2023-02-11T07:28:01;114.10;;;45.40;;
37955;SDS011;23776;51.592;7.180;2023-02-11T07:30:28;124.22;;;45.65;;
37955;SDS011;23776;51.592;7.180;2023-02-11T07:32:55;129.20;;;43.83;;
37955;SDS011;23776;51.592;7.180;2023-02-11T07:35:20;112.68;;;42.92;;
37955;SDS011;23776;51.592;7.180;2023-02-11T07:37:46;115.28;;;44.20;;
37955;SDS011;23776;51.592;7.180;2023-02-11T07:40:12;118.25;;;45.08;;
37955;SDS011;23776;51.592;7.180;2023-02-11T07:42:37;128.15;;;46.25;;
37955;SDS011;23776;51.592;7.180;2023-02-11T07:45:05;120.13;;;44.22;;
37955;SDS011;23776;51.592;7.180;2023-02-11T07:47:32;119.97;;;44.35;;
37955;SDS011;23776;51.592;7.180;2023-02-11T07:49:59;129.98;;;45.30;;
37955;SDS011;23776;51.592;7.180;2023-02-11T07:52:24;124.05;;;43.50;;
37955;SDS011;23776;51.592;7.180;2023-02-11T07:54:54;113.57;;;43.40;;
37955;SDS011;23776;51.592;7.180;2023-02-11T07:57:19;122.63;;;43.72;;
37955;SDS011;23776;51.592;7.180;2023-02-11T07:59:45;121.15;;;40.97;;
37955;SDS011;23776;51.592;7.180;2023-02-11T08:02:10;121.05;;;42.88;;
37955;SDS011;23776;51.592;7.180;2023-02-11T08:04:36;121.93;;;42.63;;
37955;SDS011;23776;51.592;7.180;2023-02-11T08:07:02;116.28;;;39.53;;
37955;SDS011;23776;51.592;7.180;2023-02-11T08:09:27;124.55;;;41.60;;
37955;SDS011;23776;51.592;7.180;2023-02-11T08:11:53;121.97;;;43.55;;
37955;SDS011;23776;51.592;7.180;2023-02-11T08:14:18;131.52;;;45.40;;
37955;SDS011;23776;51.592;7.180;2023-02-11T08:16:44;121.70;;;45.00;;
37955;SDS011;23776;51.592;7.180;2023-02-11T08:19:11;129.43;;;43.55;;
37955;SDS011;23776;51.592;7.180;2023-02-11T08:21:38;124.10;;;44.20;;
37955;SDS011;23776;51.592;7.180;2023-02-11T08:24:04;108.07;;;40.42;;
37955;SDS011;23776;51.592;7.180;2023-02-11T08:26:31;124.35;;;44.38;;
37955;SDS011;23776;51.592;7.180;2023-02-11T08:28:58;127.65;;;43.00;;
37955;SDS011;23776;51.592;7.180;2023-02-11T08:31:26;123.15;;;43.25;;
37955;SDS011;23776;51.592;7.180;2023-02-11T08:34:00;102.57;;;39.55;;
37955;SDS011;23776;51.592;7.180;2023-02-11T08:36:45;130.63;;;41.42;;
37955;SDS011;23776;51.592;7.180;2023-02-11T08:39:12;120.93;;;42.47;;
37955;SDS011;23776;51.592;7.180;2023-02-11T08:41:40;127.93;;;43.25;;
37955;SDS011;23776;51.592;7.180;2023-02-11T08:44:05;106.30;;;41.20;;
37955;SDS011;23776;51.592;7.180;2023-02-11T08:46:31;115.38;;;43.97;;
37955;SDS011;23776;51.592;7.180;2023-02-11T08:48:56;107.85;;;41.25;;
37955;SDS011;23776;51.592;7.180;2023-02-11T08:51:23;115.90;;;41.20;;
37955;SDS011;23776;51.592;7.180;2023-02-11T08:53:52;103.35;;;40.10;;
37955;SDS011;23776;51.592;7.180;2023-02-11T08:56:18;120.85;;;42.88;;
37955;SDS011;23776;51.592;7.180;2023-02-11T08:58:45;113.07;;;39.70;;
37955;SDS011;23776;51.592;7.180;2023-02-11T09:01:18;125.32;;;44.15;;
37955;SDS011;23776;51.592;7.180;2023-02-11T09:03:44;123.32;;;43.15;;
37955;SDS011;23776;51.592;7.180;2023-02-11T09:06:10;132.48;;;43.38;;
37955;SDS011;23776;51.592;7.180;2023-02-11T09:08:38;118.03;;;42.97;;
37955;SDS011;23776;51.592;7.180;2023-02-11T09:11:06;120.18;;;43.22;;
37955;SDS011;23776;51.592;7.180;2023-02-11T09:13:32;119.68;;;44.63;;
37955;SDS011;23776;51.592;7.180;2023-02-11T09:15:58;119.20;;;41.65;;
37955;SDS011;23776;51.592;7.180;2023-02-11T09:18:24;112.93;;;42.67;;
37955;SDS011;23776;51.592;7.180;2023-02-11T09:20:51;116.90;;;42.38;;
37955;SDS011;23776;51.592;7.180;2023-02-11T09:23:16;107.25;;;40.53;;
37955;SDS011;23776;51.592;7.180;2023-02-11T09:25:42;125.50;;;41.95;;
37955;SDS011;23776;51.592;7.180;2023-02-11T09:28:08;101.40;;;39.70;;
37955;SDS011;23776;51.592;7.180;2023-02-11T09:30:35;111.32;;;41.22;;
37955;SDS011;23776;51.592;7.180;2023-02-11T09:33:01;108.15;;;39.90;;
37955;SDS011;23776;51.592;7.180;2023-02-11T09:35:27;111.75;;;39.70;;
37955;SDS011;23776;51.592;7.180;2023-02-11T09:37:53;122.63;;;42.85;;
37955;SDS011;23776;51.592;7.180;2023-02-11T09:40:19;123.82;;;39.92;;
37955;SDS011;23776;51.592;7.180;2023-02-11T09:45:29;113.63;;;41.72;;
37955;SDS011;23776;51.592;7.180;2023-02-11T09:47:56;116.88;;;42.83;;
37955;SDS011;23776;51.592;7.180;2023-02-11T09:50:29;112.88;;;42.53;;
37955;SDS011;23776;51.592;7.180;2023-02-11T09:53:05;120.63;;;43.38;;
37955;SDS011;23776;51.592;7.180;2023-02-11T09:55:45;122.10;;;42.45;;
37955;SDS011;23776;51.592;7.180;2023-02-11T09:58:19;121.75;;;45.33;;
37955;SDS011;23776;51.592;7.180;2023-02-11T10:08:44;123.15;;;44.95;;
37955;SDS011;23776;51.592;7.180;2023-02-11T10:14:25;127.15;;;45.95;;
37955;SDS011;23776;51.592;7.180;2023-02-11T10:22:21;126.03;;;43.83;;
37955;SDS011;23776;51.592;7.180;2023-02-11T10:25:19;132.02;;;46.20;;
37955;SDS011;23776;51.592;7.180;2023-02-11T10:28:13;124.53;;;45.17;;
37955;SDS011;23776;51.592;7.180;2023-02-11T10:36:09;123.80;;;44.92;;
37955;SDS011;23776;51.592;7.180;2023-02-11T10:38:36;132.30;;;45.20;;
37955;SDS011;23776;51.592;7.180;2023-02-11T10:41:02;114.70;;;43.67;;
37955;SDS011;23776;51.592;7.180;2023-02-11T10:43:29;128.90;;;45.20;;
37955;SDS011;23776;51.592;7.180;2023-02-11T10:45:56;125.68;;;46.58;;
37955;SDS011;23776;51.592;7.180;2023-02-11T10:48:43;127.75;;;44.78;;
37955;SDS011;23776;51.592;7.180;2023-02-11T10:51:19;124.13;;;45.25;;
37955;SDS011;23776;51.592;7.180;2023-02-11T10:56:50;126.50;;;43.65;;
37955;SDS011;23776;51.592;7.180;2023-02-11T11:01:59;125.07;;;44.45;;
37955;SDS011;23776;51.592;7.180;2023-02-11T11:06:53;117.82;;;44.35;;
37955;SDS011;23776;51.592;7.180;2023-02-11T11:09:29;110.70;;;42.33;;
37955;SDS011;23776;51.592;7.180;2023-02-11T11:12:18;107.63;;;42.45;;
37955;SDS011;23776;51.592;7.180;2023-02-11T11:14:55;116.28;;;44.38;;
37955;SDS011;23776;51.592;7.180;2023-02-11T11:17:22;121.55;;;43.58;;
37955;SDS011;23776;51.592;7.180;2023-02-11T11:19:49;142.75;;;47.03;;
37955;SDS011;23776;51.592;7.180;2023-02-11T11:22:21;119.35;;;44.05;;
37955;SDS011;23776;51.592;7.180;2023-02-11T11:24:47;109.38;;;41.85;;
37955;SDS011;23776;51.592;7.180;2023-02-11T11:27:19;110.40;;;42.35;;
37955;SDS011;23776;51.592;7.180;2023-02-11T11:29:48;124.47;;;44.55;;
37955;SDS011;23776;51.592;7.180;2023-02-11T11:32:27;115.32;;;45.03;;
37955;SDS011;23776;51.592;7.180;2023-02-11T11:34:59;111.90;;;42.35;;
37955;SDS011;23776;51.592;7.180;2023-02-11T11:37:36;110.35;;;41.58;;
37955;SDS011;23776;51.592;7.180;2023-02-11T11:40:36;116.78;;;42.90;;
37955;SDS011;23776;51.592;7.180;2023-02-11T11:45:42;116.60;;;40.55;;
37955;SDS011;23776;51.592;7.180;2023-02-11T11:48:20;114.25;;;41.10;;
37955;SDS011;23776;51.592;7.180;2023-02-11T11:50:57;117.75;;;40.70;;
37955;SDS011;23776;51.592;7.180;2023-02-11T11:56:08;113.03;;;42.70;;
37955;SDS011;23776;51.592;7.180;2023-02-11T11:58:41;108.05;;;38.05;;
37955;SDS011;23776;51.592;7.180;2023-02-11T12:01:24;108.05;;;39.78;;
37955;SDS011;23776;51.592;7.180;2023-02-11T12:06:52;103.55;;;37.70;;
37955;SDS011;23776;51.592;7.180;2023-02-11T12:12:10;106.50;;;39.00;;
37955;SDS011;23776;51.592;7.180;2023-02-11T12:17:53;126.28;;;47.70;;
37955;SDS011;23776;51.592;7.180;2023-02-11T12:30:56;117.68;;;42.00;;
37955;SDS011;23776;51.592;7.180;2023-02-11T12:47:42;116.95;;;42.05;;
37955;SDS011;23776;51.592;7.180;2023-02-11T12:53:08;114.32;;;42.13;;
37955;SDS011;23776;51.592;7.180;2023-02-11T12:55:58;112.63;;;43.33;;
37955;SDS011;23776;51.592;7.180;2023-02-11T12:58:39;114.28;;;40.80;;
37955;SDS011;23776;51.592;7.180;2023-02-11T13:01:08;126.05;;;40.85;;
37955;SDS011;23776;51.592;7.180;2023-02-11T13:03:45;106.90;;;41.30;;
37955;SDS011;23776;51.592;7.180;2023-02-11T13:06:18;113.43;;;40.17;;
37955;SDS011;23776;51.592;7.180;2023-02-11T13:08:50;108.47;;;40.00;;
37955;SDS011;23776;51.592;7.180;2023-02-11T13:11:23;114.47;;;40.10;;
37955;SDS011;23776;51.592;7.180;2023-02-11T13:13:59;111.28;;;41.53;;
37955;SDS011;23776;51.592;7.180;2023-02-11T13:19:14;106.03;;;41.03;;
37955;SDS011;23776;51.592;7.180;2023-02-11T13:22:12;121.20;;;44.22;;
37955;SDS011;23776;51.592;7.180;2023-02-11T13:24:58;110.30;;;39.83;;
37955;SDS011;23776;51.592;7.180;2023-02-11T13:27:54;100.72;;;40.60;;
37955;SDS011;23776;51.592;7.180;2023-02-11T13:30:34;119.30;;;40.85;;
37955;SDS011;23776;51.592;7.180;2023-02-11T13:33:49;104.65;;;40.40;;
37955;SDS011;23776;51.592;7.180;2023-02-11T13:38:23;118.85;;;40.22;;
37955;SDS011;23776;51.592;7.180;2023-02-11T13:41:01;110.07;;;39.13;;
37955;SDS011;23776;51.592;7.180;2023-02-11T13:43:31;104.85;;;40.60;;
37955;SDS011;23776;51.592;7.180;2023-02-11T13:46:01;112.60;;;41.05;;
37955;SDS011;23776;51.592;7.180;2023-02-11T13:48:30;107.18;;;41.30;;
37955;SDS011;23776;51.592;7.180;2023-02-11T13:51:10;102.75;;;42.28;;
37955;SDS011;23776;51.592;7.180;2023-02-11T13:53:48;104.75;;;39.63;;
37955;SDS011;23776;51.592;7.180;2023-02-11T13:56:27;103.55;;;40.63;;
37955;SDS011;23776;51.592;7.180;2023-02-11T14:10:51;93.50;;;35.92;;
37955;SDS011;23776;51.592;7.180;2023-02-11T14:13:22;79.00;;;32.45;;
37955;SDS011;23776;51.592;7.180;2023-02-11T14:21:10;86.20;;;33.88;;
37955;SDS011;23776;51.592;7.180;2023-02-11T14:23:38;87.50;;;32.65;;
37955;SDS011;23776;51.592;7.180;2023-02-11T14:26:52;76.32;;;31.63;;
37955;SDS011;23776;51.592;7.180;2023-02-11T14:39:45;72.53;;;30.08;;
37955;SDS011;23776;51.592;7.180;2023-02-11T14:42:18;66.45;;;29.08;;
37955;SDS011;23776;51.592;7.180;2023-02-11T14:44:47;68.72;;;27.90;;
37955;SDS011;23776;51.592;7.180;2023-02-11T14:47:16;76.63;;;29.20;;
37955;SDS011;23776;51.592;7.180;2023-02-11T14:49:44;65.03;;;27.83;;
37955;SDS011;23776;51.592;7.180;2023-02-11T14:52:23;64.70;;;28.00;;
37955;SDS011;23776;51.592;7.180;2023-02-11T14:58:18;65.85;;;28.70;;
37955;SDS011;23776;51.592;7.180;2023-02-11T15:00:56;75.70;;;29.45;;
37955;SDS011;23776;51.592;7.180;2023-02-11T15:03:32;68.82;;;29.17;;
37955;SDS011;23776;51.592;7.180;2023-02-11T15:06:00;66.20;;;27.00;;
37955;SDS011;23776;51.592;7.180;2023-02-11T15:08:46;70.45;;;31.20;;
37955;SDS011;23776;51.592;7.180;2023-02-11T15:11:24;67.07;;;29.75;;
37955;SDS011;23776;51.592;7.180;2023-02-11T15:13:51;63.50;;;28.75;;
37955;SDS011;23776;51.592;7.180;2023-02-11T15:16:22;62.60;;;27.33;;
37955;SDS011;23776;51.592;7.180;2023-02-11T15:18:52;65.40;;;25.90;;
37955;SDS011;23776;51.592;7.180;2023-02-11T15:21:24;65.47;;;27.65;;
37955;SDS011;23776;51.592;7.180;2023-02-11T15:26:21;68.10;;;26.38;;
37955;SDS011;23776;51.592;7.180;2023-02-11T15:28:46;72.25;;;29.30;;
37955;SDS011;23776;51.592;7.180;2023-02-11T15:31:16;69.78;;;26.92;;
37955;SDS011;23776;51.592;7.180;2023-02-11T15:33:43;66.03;;;27.52;;
37955;SDS011;23776;51.592;7.180;2023-02-11T15:36:10;66.85;;;27.88;;
37955;SDS011;23776;51.592;7.180;2023-02-11T15:38:37;60.65;;;26.15;;
37955;SDS011;23776;51.592;7.180;2023-02-11T15:41:03;60.15;;;26.05;;
37955;SDS011;23776;51.592;7.180;2023-02-11T15:46:10;62.97;;;24.50;;
37955;SDS011;23776;51.592;7.180;2023-02-11T15:48:44;62.33;;;25.40;;
37955;SDS011;23776;51.592;7.180;2023-02-11T15:53:47;60.45;;;24.83;;
37955;SDS011;23776;51.592;7.180;2023-02-11T15:56:30;53.53;;;23.35;;
37955;SDS011;23776;51.592;7.180;2023-02-11T16:01:54;59.53;;;26.50;;
37955;SDS011;23776;51.592;7.180;2023-02-11T16:04:23;56.97;;;25.88;;
37955;SDS011;23776;51.592;7.180;2023-02-11T16:06:51;60.35;;;26.08;;
37955;SDS011;23776;51.592;7.180;2023-02-11T16:17:00;65.38;;;27.83;;
37955;SDS011;23776;51.592;7.180;2023-02-11T16:19:26;63.10;;;29.42;;
37955;SDS011;23776;51.592;7.180;2023-02-11T16:21:53;65.53;;;26.50;;
37955;SDS011;23776;51.592;7.180;2023-02-11T16:24:26;65.18;;;27.65;;
37955;SDS011;23776;51.592;7.180;2023-02-11T16:26:55;65.88;;;28.63;;
37955;SDS011;23776;51.592;7.180;2023-02-11T16:29:24;76.60;;;29.80;;
37955;SDS011;23776;51.592;7.180;2023-02-11T16:31:52;62.95;;;27.88;;
37955;SDS011;23776;51.592;7.180;2023-02-11T16:34:28;70.35;;;28.58;;
37955;SDS011;23776;51.592;7.180;2023-02-11T16:36:54;76.80;;;31.67;;
37955;SDS011;23776;51.592;7.180;2023-02-11T16:39:19;73.60;;;33.35;;
37955;SDS011;23776;51.592;7.180;2023-02-11T16:41:46;70.85;;;30.83;;
37955;SDS011;23776;51.592;7.180;2023-02-11T16:44:14;70.75;;;29.30;;
37955;SDS011;23776;51.592;7.180;2023-02-11T16:46:40;75.63;;;31.13;;
37955;SDS011;23776;51.592;7.180;2023-02-11T16:51:50;62.63;;;28.03;;
37955;SDS011;23776;51.592;7.180;2023-02-11T16:54:17;64.47;;;28.25;;
37955;SDS011;23776;51.592;7.180;2023-02-11T16:56:43;74.50;;;30.10;;
37955;SDS011;23776;51.592;7.180;2023-02-11T16:59:09;63.85;;;28.70;;
37955;SDS011;23776;51.592;7.180;2023-02-11T17:01:35;76.45;;;30.63;;
37955;SDS011;23776;51.592;7.180;2023-02-11T17:04:03;66.40;;;28.98;;
37955;SDS011;23776;51.592;7.180;2023-02-11T17:06:30;74.45;;;31.02;;
37955;SDS011;23776;51.592;7.180;2023-02-11T17:08:58;69.85;;;31.38;;
37955;SDS011;23776;51.592;7.180;2023-02-11T17:11:23;80.25;;;31.95;;
37955;SDS011;23776;51.592;7.180;2023-02-11T17:13:49;84.75;;;33.97;;
37955;SDS011;23776;51.592;7.180;2023-02-11T17:16:15;87.05;;;34.03;;
37955;SDS011;23776;51.592;7.180;2023-02-11T17:18:43;87.70;;;32.97;;
37955;SDS011;23776;51.592;7.180;2023-02-11T17:21:09;85.28;;;34.75;;
37955;SDS011;23776;51.592;7.180;2023-02-11T17:23:34;86.57;;;33.17;;